Terminal Aerodrome Forecast
Issued by NWS

Home | Current Version | Previous Version | Text Only | Print | Product List | Glossary On
Versions: 1 2 3 4 5 6 7 8 9 10 11 12 13 14 15 16 17 18 19 20 21 22 23
813
FTUS42 KFFC 031123
TAFPDK
TAF
KPDK 031123Z 0312/0412 26005KT P6SM VCSH SCT006 BKN012
     FM031400 27006KT P6SM OVC015
     FM031700 30010KT P6SM BKN050
     FM040000 30007KT P6SM SCT100=

USA.gov is the U.S. government's official web portal to all federal, state and local government web resources and services.